Time;durP1;ratioP1;P1;durP2;ratioP2;P2;SDS_P1;SDS_P2;PMS_P1;PMS_P2;Temp;Humidity;BMP_temperature;BMP_pressure;BME280_temperature;BME280_humidity;BME280_pressure;Samples;Min_cycle;Max_cycle;Signal;HPM_P1;HPM_P2
2023/01/19 00:00:57;;;;;;;24.00;10.90;;;;;;;6.78;100.00;99032.43;105335;1260;67688;-68
2023/01/19 00:03:24;;;;;;;24.50;10.90;;;;;;;6.76;100.00;99033.57;105317;1258;73937;-67
2023/01/19 00:05:51;;;;;;;22.30;10.80;;;;;;;6.74;100.00;99023.66;105368;1263;61619;-69
2023/01/19 00:08:18;;;;;;;22.80;11.00;;;;;;;6.71;100.00;99015.55;105347;1260;63116;-70
2023/01/19 00:10:47;;;;;;;20.20;10.10;;;;;;;6.74;100.00;99017.56;105112;1258;74354;-69
2023/01/19 00:13:14;;;;;;;24.70;10.60;;;;;;;6.77;100.00;99021.60;105446;1260;68380;-69
2023/01/19 00:15:41;;;;;;;23.20;11.60;;;;;;;6.78;100.00;99023.50;105188;1269;73197;-68
2023/01/19 00:18:08;;;;;;;23.00;10.80;;;;;;;6.77;100.00;99022.83;104943;1264;61758;-69
2023/01/19 00:20:38;;;;;;;23.70;11.90;;;;;;;6.75;100.00;99026.83;105292;1260;61474;-68
2023/01/19 00:23:06;;;;;;;29.00;13.60;;;;;;;6.73;100.00;99039.83;105159;1263;74519;-69
2023/01/19 00:25:34;;;;;;;32.10;12.20;;;;;;;6.67;100.00;99046.30;105537;1260;68421;-69
2023/01/19 00:28:01;;;;;;;20.10;11.40;;;;;;;6.65;100.00;99052.02;105330;1257;71791;-69
2023/01/19 00:30:28;;;;;;;20.60;9.80;;;;;;;6.62;100.00;99055.50;104931;1263;60949;-70
2023/01/19 00:32:56;;;;;;;25.10;11.10;;;;;;;6.61;100.00;99053.19;105174;1263;62990;-68
2023/01/19 00:35:22;;;;;;;25.20;11.40;;;;;;;6.57;100.00;99047.83;105358;1260;74288;-68
2023/01/19 00:37:50;;;;;;;24.00;10.20;;;;;;;6.53;100.00;99041.77;105217;1260;67804;-69
2023/01/19 00:40:17;;;;;;;28.30;12.90;;;;;;;6.54;100.00;99036.97;105029;1260;73219;-68
2023/01/19 00:42:44;;;;;;;18.40;9.40;;;;;;;6.53;100.00;99033.43;105276;1257;64731;-68
2023/01/19 00:45:12;;;;;;;22.70;11.60;;;;;;;6.54;100.00;99032.61;105294;1257;60608;-69
2023/01/19 00:47:39;;;;;;;21.30;10.80;;;;;;;6.54;100.00;99033.71;105201;1261;75953;-69
2023/01/19 00:50:11;;;;;;;25.00;13.30;;;;;;;6.57;100.00;99037.83;105291;1258;68131;-69
2023/01/19 00:52:39;;;;;;;29.20;12.60;;;;;;;6.55;100.00;99036.21;105293;1257;75133;-70
2023/01/19 00:55:06;;;;;;;21.00;10.80;;;;;;;6.57;100.00;99032.28;105337;1257;62957;-68
2023/01/19 00:57:34;;;;;;;22.30;9.10;;;;;;;6.61;100.00;99032.55;105397;1260;62796;-70
2023/01/19 01:00:04;;;;;;;22.30;9.60;;;;;;;6.62;100.00;99035.67;105514;1260;73845;-71
2023/01/19 01:02:32;;;;;;;27.90;10.50;;;;;;;6.65;100.00;99037.75;105560;1260;67105;-71
2023/01/19 01:05:01;;;;;;;17.40;9.80;;;;;;;6.71;100.00;99042.73;105462;1261;72801;-70
2023/01/19 01:07:29;;;;;;;16.20;9.20;;;;;;;6.81;100.00;99035.70;107568;1257;61785;-71
2023/01/19 01:09:56;;;;;;;24.30;9.30;;;;;;;6.92;100.00;99034.06;108302;1259;61070;-69
2023/01/19 01:12:23;;;;;;;24.90;10.70;;;;;;;7.06;100.00;99045.05;108682;1257;73549;-70
2023/01/19 01:14:49;;;;;;;20.60;7.80;;;;;;;7.16;100.00;99044.76;107144;1258;69055;-70
2023/01/19 01:17:23;;;;;;;20.80;9.30;;;;;;;7.25;100.00;99047.27;105653;1261;71600;-69
2023/01/19 01:19:51;;;;;;;18.30;9.70;;;;;;;7.36;100.00;99050.27;105866;1257;64207;-70
2023/01/19 01:22:18;;;;;;;19.70;9.40;;;;;;;7.46;100.00;99059.14;107472;1262;60528;-70
2023/01/19 01:24:45;;;;;;;18.30;8.20;;;;;;;7.48;100.00;99066.84;105932;1260;74834;-71
2023/01/19 01:27:12;;;;;;;22.40;10.10;;;;;;;7.50;100.00;99065.94;105223;1260;66917;-70
2023/01/19 01:29:40;;;;;;;14.50;9.70;;;;;;;7.49;100.00;99061.17;105110;1261;72111;-71
2023/01/19 01:32:07;;;;;;;15.30;9.00;;;;;;;7.40;100.00;99060.55;105071;1258;61943;-71
2023/01/19 01:34:34;;;;;;;13.10;8.50;;;;;;;7.28;100.00;99072.29;105081;1262;62972;-72
2023/01/19 01:37:01;;;;;;;22.10;8.50;;;;;;;7.16;100.00;99074.67;105692;1263;74041;-72
2023/01/19 01:39:28;;;;;;;17.00;9.00;;;;;;;7.06;100.00;99067.55;105761;1257;70824;-70
2023/01/19 01:41:55;;;;;;;18.90;7.80;;;;;;;6.97;100.00;99059.98;105188;1256;73129;-71
2023/01/19 01:44:52;;;;;;;17.70;8.90;;;;;;;6.95;100.00;99066.14;105206;1258;63681;-71
2023/01/19 01:47:42;;;;;;;16.50;9.00;;;;;;;6.95;100.00;99073.35;105098;1257;60717;-71
2023/01/19 01:50:11;;;;;;;21.60;9.30;;;;;;;6.94;100.00;99084.68;105218;1263;76516;-71
2023/01/19 01:52:42;;;;;;;13.30;8.50;;;;;;;6.89;100.00;99088.64;105125;1264;69751;-71
2023/01/19 01:55:29;;;;;;;15.60;9.20;;;;;;;6.80;100.00;99090.15;105306;1257;72109;-69
2023/01/19 01:57:58;;;;;;;12.90;8.40;;;;;;;6.72;100.00;99090.22;104926;1260;64515;-70
2023/01/19 02:00:25;;;;;;;19.50;9.30;;;;;;;6.66;100.00;99086.72;105347;1262;63238;-70
2023/01/19 02:02:58;;;;;;;15.90;9.60;;;;;;;6.61;100.00;99082.90;105371;1260;74176;-70
2023/01/19 02:05:28;;;;;;;19.10;9.10;;;;;;;6.62;100.00;99077.15;104959;1257;70473;-69
2023/01/19 02:13:50;;;;;;;16.30;8.30;;;;;;;6.60;100.00;99065.23;105388;1261;61010;-70
2023/01/19 02:16:17;;;;;;;19.90;8.10;;;;;;;6.65;100.00;99073.45;105238;1263;76324;-71
2023/01/19 02:18:44;;;;;;;14.90;7.80;;;;;;;6.64;100.00;99077.55;105229;1258;69128;-70
2023/01/19 02:21:14;;;;;;;13.90;7.90;;;;;;;6.63;100.00;99087.09;105282;1257;73958;-70
2023/01/19 02:23:51;;;;;;;17.00;7.60;;;;;;;6.63;100.00;99097.94;105368;1257;62489;-70
2023/01/19 02:26:23;;;;;;;18.90;8.20;;;;;;;6.57;100.00;99095.16;105213;1257;60632;-71
2023/01/19 02:29:01;;;;;;;18.80;9.00;;;;;;;6.62;100.00;99090.06;105639;1263;74654;-71
2023/01/19 02:31:28;;;;;;;21.20;10.10;;;;;;;6.75;100.00;99092.13;105313;1257;68564;-70
2023/01/19 02:33:56;;;;;;;29.20;10.00;;;;;;;6.91;100.00;99094.72;105472;1262;71474;-70
2023/01/19 02:36:26;;;;;;;18.60;9.20;;;;;;;7.00;100.00;99098.52;105000;1257;62193;-69
2023/01/19 02:38:55;;;;;;;25.10;10.10;;;;;;;6.93;100.00;99101.75;105445;1260;60709;-70
2023/01/19 02:41:27;;;;;;;16.90;9.40;;;;;;;6.84;100.00;99099.40;105283;1260;75286;-70
2023/01/19 02:43:55;;;;;;;17.20;8.90;;;;;;;6.77;100.00;99097.09;105399;1260;66856;-70
2023/01/19 02:46:22;;;;;;;25.30;11.00;;;;;;;6.73;100.00;99096.10;105417;1257;73057;-70
2023/01/19 02:48:49;;;;;;;13.90;9.00;;;;;;;6.69;100.00;99099.29;105078;1261;63872;-70
2023/01/19 02:51:25;;;;;;;16.80;8.00;;;;;;;6.67;100.00;99094.92;105251;1257;60619;-70
2023/01/19 02:54:17;;;;;;;17.10;8.90;;;;;;;6.70;100.00;99083.34;104974;1263;73312;-69
2023/01/19 02:56:50;;;;;;;15.30;8.50;;;;;;;6.69;100.00;99083.52;105154;1258;68549;-70
2023/01/19 02:59:40;;;;;;;12.40;8.10;;;;;;;6.67;100.00;99072.80;105319;1263;71003;-72
2023/01/19 03:02:32;;;;;;;15.40;7.30;;;;;;;6.68;100.00;99064.36;105082;1256;62518;-70
2023/01/19 03:05:16;;;;;;;12.90;8.50;;;;;;;6.73;100.00;99049.23;105340;1257;60586;-69
2023/01/19 03:07:49;;;;;;;14.60;8.90;;;;;;;6.76;100.00;99059.92;105096;1257;75080;-69
2023/01/19 03:10:21;;;;;;;11.10;8.90;;;;;;;6.73;100.00;99081.42;105351;1260;67049;-70
2023/01/19 03:13:01;;;;;;;14.30;7.60;;;;;;;6.63;100.00;99089.20;105181;1263;71584;-70
2023/01/19 03:16:14;;;;;;;12.30;8.70;;;;;;;6.56;100.00;99085.27;105407;1257;61099;-70
2023/01/19 03:18:42;;;;;;;17.50;9.70;;;;;;;6.50;100.00;99097.17;105026;1257;60588;-69
2023/01/19 03:21:09;;;;;;;15.60;10.40;;;;;;;6.50;100.00;99093.00;105492;1256;75153;-71
2023/01/19 03:23:37;;;;;;;18.70;9.90;;;;;;;6.49;100.00;99085.56;105257;1258;68456;-69
2023/01/19 03:26:04;;;;;;;16.00;10.70;;;;;;;6.49;100.00;99089.02;105350;1260;70854;-70
2023/01/19 03:28:31;;;;;;;19.10;10.10;;;;;;;6.44;100.00;99084.98;105098;1260;61492;-69
2023/01/19 03:31:01;;;;;;;21.00;11.00;;;;;;;6.40;100.00;99090.45;105190;1259;60845;-70
2023/01/19 03:33:32;;;;;;;22.60;12.90;;;;;;;6.35;100.00;99096.67;105281;1261;72834;-71
2023/01/19 03:36:28;;;;;;;16.70;8.80;;;;;;;6.40;100.00;99097.12;105159;1262;67432;-69
2023/01/19 03:38:56;;;;;;;15.20;9.10;;;;;;;6.48;100.00;99103.11;105114;1260;72315;-69
2023/01/19 03:41:23;;;;;;;15.00;9.90;;;;;;;6.55;100.00;99103.95;105156;1257;63222;-69
2023/01/19 03:43:50;;;;;;;15.20;8.30;;;;;;;6.57;100.00;99107.25;104965;1260;61506;-70
2023/01/19 03:46:18;;;;;;;15.40;9.70;;;;;;;6.56;100.00;99115.61;105330;1261;74102;-70
2023/01/19 03:48:45;;;;;;;14.50;9.20;;;;;;;6.47;100.00;99115.74;105062;1258;68836;-69
2023/01/19 07:52:52;;;;;;;19.80;17.70;;;;;;;3.69;100.00;99054.08;102135;1292;600258;-69
2023/01/19 07:55:20;;;;;;;19.10;17.10;;;;;;;3.68;100.00;99050.70;104241;1275;60414;-68
2023/01/19 07:57:49;;;;;;;24.70;19.10;;;;;;;3.70;100.00;99047.92;104539;1270;62166;-68
2023/01/19 08:00:20;;;;;;;22.30;16.70;;;;;;;3.72;100.00;99057.11;104504;1269;72910;-67
2023/01/19 08:02:50;;;;;;;22.60;17.10;;;;;;;3.75;100.00;99054.73;104501;1270;69018;-67
2023/01/19 08:05:18;;;;;;;19.10;15.40;;;;;;;3.78;100.00;99055.73;103961;1270;653934;-69
2023/01/19 08:07:45;;;;;;;16.70;13.80;;;;;;;3.79;100.00;99048.86;104647;1266;63757;-68
2023/01/19 08:10:13;;;;;;;20.20;14.90;;;;;;;3.84;100.00;99043.19;104589;1266;60019;-66
2023/01/19 08:12:40;;;;;;;18.40;14.10;;;;;;;3.85;100.00;99041.57;104567;1267;72935;-69
2023/01/19 08:15:09;;;;;;;21.30;16.50;;;;;;;3.89;100.00;99045.79;104490;1267;69666;-68
2023/01/19 08:17:36;;;;;;;21.60;15.80;;;;;;;3.94;100.00;99043.80;105164;1260;73417;-68
2023/01/19 08:20:03;;;;;;;24.80;19.20;;;;;;;3.96;100.00;99045.88;105075;1266;60689;-67
2023/01/19 08:22:30;;;;;;;21.00;16.90;;;;;;;4.01;100.00;99052.73;105049;1260;62035;-67
2023/01/19 08:24:57;;;;;;;13.90;12.50;;;;;;;4.05;100.00;99062.42;105044;1260;73762;-67
2023/01/19 08:27:24;;;;;;;11.30;10.30;;;;;;;4.13;100.00;99074.56;105088;1260;70831;-68
2023/01/19 08:29:50;;;;;;;11.50;10.60;;;;;;;4.22;100.00;99083.98;104965;1265;71399;-68
2023/01/19 08:32:17;;;;;;;11.60;8.60;;;;;;;4.26;100.00;99074.20;105015;1263;61714;-68
2023/01/19 08:34:45;;;;;;;8.70;7.80;;;;;;;4.28;100.00;99080.80;105130;1260;60972;-68
2023/01/19 08:37:12;;;;;;;13.30;9.40;;;;;;;4.34;100.00;99079.26;105000;1266;76415;-68
2023/01/19 08:39:39;;;;;;;13.30;8.00;;;;;;;4.39;100.00;99085.25;105012;1266;67560;-68
2023/01/19 08:42:06;;;;;;;10.30;9.40;;;;;;;4.47;100.00;99076.91;104992;1260;74282;-69
2023/01/19 08:44:33;;;;;;;11.60;10.40;;;;;;;4.50;100.00;99078.15;105043;1261;62797;-69
2023/01/19 08:47:00;;;;;;;10.80;9.10;;;;;;;4.51;100.00;99074.39;104839;1264;60995;-68
2023/01/19 08:49:26;;;;;;;14.60;13.00;;;;;;;4.53;100.00;99061.88;105027;1263;73980;-69
2023/01/19 08:51:53;;;;;;;19.10;15.00;;;;;;;4.54;100.00;99063.98;104784;1266;67718;-69
2023/01/19 08:54:21;;;;;;;27.30;19.10;;;;;;;4.59;100.00;99065.24;105032;1261;73070;-68
2023/01/19 08:56:48;;;;;;;28.40;22.90;;;;;;;4.62;100.00;99063.67;104878;1266;61976;-69
2023/01/19 08:59:15;;;;;;;29.20;22.10;;;;;;;4.65;100.00;99070.23;105020;1261;60081;-70
2023/01/19 09:01:43;;;;;;;32.60;23.40;;;;;;;4.70;100.00;99070.48;104944;1259;72583;-69
2023/01/19 09:04:10;;;;;;;33.20;23.40;;;;;;;4.75;100.00;99066.61;105149;1260;70200;-68
2023/01/19 09:06:37;;;;;;;31.80;23.40;;;;;;;4.79;100.00;99061.92;104997;1260;74987;-68
2023/01/19 09:09:04;;;;;;;41.40;27.60;;;;;;;4.82;100.00;99054.12;104952;1260;62995;-68
2023/01/19 09:11:31;;;;;;;36.10;23.60;;;;;;;4.86;100.00;99062.98;104925;1260;61903;-67
2023/01/19 09:13:58;;;;;;;36.40;25.10;;;;;;;4.88;100.00;99065.35;105032;1265;72756;-67
2023/01/19 09:16:26;;;;;;;31.90;21.20;;;;;;;4.92;100.00;99062.03;104982;1266;70415;-68
2023/01/19 09:18:53;;;;;;;27.00;20.10;;;;;;;4.97;100.00;99054.48;105198;1260;72998;-67
2023/01/19 09:21:20;;;;;;;29.40;20.60;;;;;;;5.02;100.00;99052.17;105000;1260;63840;-68
2023/01/19 09:23:48;;;;;;;34.10;20.80;;;;;;;5.08;100.00;99057.32;105036;1260;60781;-67
2023/01/19 09:26:15;;;;;;;24.90;18.40;;;;;;;5.16;100.00;99052.55;105038;1266;73600;-68
2023/01/19 09:28:42;;;;;;;27.50;18.20;;;;;;;5.25;100.00;99062.70;105020;1260;68433;-68
2023/01/19 09:31:09;;;;;;;27.00;19.20;;;;;;;5.27;100.00;99062.56;104971;1260;75247;-69
2023/01/19 09:33:36;;;;;;;22.80;17.90;;;;;;;5.29;100.00;99058.89;105090;1260;64374;-68
2023/01/19 09:36:03;;;;;;;24.40;17.40;;;;;;;5.35;100.00;99054.07;105035;1260;59703;-69
2023/01/19 09:38:31;;;;;;;21.50;17.00;;;;;;;5.43;100.00;99043.58;105126;1264;75822;-69
2023/01/19 09:40:59;;;;;;;24.00;17.30;;;;;;;5.50;100.00;99040.16;104990;1264;70433;-68
2023/01/19 09:43:39;;;;;;;21.80;17.00;;;;;;;5.54;100.00;99043.52;105122;1260;74899;-71
2023/01/19 09:46:15;;;;;;;20.80;15.70;;;;;;;5.60;100.00;99040.24;104925;1264;61427;-68
2023/01/19 09:48:48;;;;;;;19.50;14.50;;;;;;;5.67;100.00;99032.02;104929;1266;60205;-70
2023/01/19 09:51:20;;;;;;;21.50;15.20;;;;;;;5.72;100.00;99030.84;105006;1260;71985;-70
2023/01/19 09:53:50;;;;;;;21.40;15.00;;;;;;;5.76;100.00;99021.31;105017;1264;68538;-69
2023/01/19 09:56:19;;;;;;;19.70;16.20;;;;;;;5.80;100.00;99019.00;104950;1266;73362;-68
2023/01/19 09:58:47;;;;;;;22.80;15.50;;;;;;;5.80;100.00;99014.99;105018;1260;63127;-67
2023/01/19 10:01:23;;;;;;;19.20;14.80;;;;;;;5.86;100.00;99013.95;104821;1266;60188;-69
2023/01/19 10:03:52;;;;;;;18.70;15.90;;;;;;;5.93;100.00;99003.60;105196;1261;72661;-69
2023/01/19 10:06:19;;;;;;;20.20;15.60;;;;;;;5.98;100.00;98997.05;105338;1260;68294;-70
2023/01/19 10:08:59;;;;;;;24.70;17.40;;;;;;;6.01;100.00;98993.58;105030;1261;74347;-71
2023/01/19 10:11:33;;;;;;;23.30;17.40;;;;;;;6.03;100.00;98992.55;104737;1260;63751;-70
2023/01/19 10:14:27;;;;;;;24.90;17.80;;;;;;;6.09;100.00;98994.90;105000;1266;62942;-70
2023/01/19 10:17:04;;;;;;;24.10;16.50;;;;;;;6.14;100.00;98985.71;105039;1260;75406;-70
2023/01/19 10:19:37;;;;;;;20.40;15.30;;;;;;;6.20;100.00;98987.04;104918;1260;70158;-69
2023/01/19 10:22:20;;;;;;;20.50;16.40;;;;;;;6.21;100.00;98975.95;104829;1267;75430;-68
2023/01/19 10:24:48;;;;;;;20.30;16.20;;;;;;;6.23;100.00;98968.03;105010;1260;64263;-70
2023/01/19 10:27:16;;;;;;;24.00;15.70;;;;;;;6.30;100.00;98964.27;105193;1260;59982;-67
2023/01/19 10:29:44;;;;;;;24.30;16.80;;;;;;;6.33;100.00;98964.33;104901;1264;75484;-68
2023/01/19 10:32:16;;;;;;;22.80;17.60;;;;;;;6.33;100.00;98956.68;104908;1265;67327;-68
2023/01/19 10:34:43;;;;;;;22.30;16.40;;;;;;;6.32;100.00;98949.09;104940;1260;73199;-68
2023/01/19 10:37:16;;;;;;;22.50;17.60;;;;;;;6.34;100.00;98947.09;104914;1261;63435;-69
2023/01/19 10:40:30;;;;;;;24.60;19.50;;;;;;;6.34;100.00;98943.65;104970;1265;61051;-69
2023/01/19 10:42:57;;;;;;;19.20;17.20;;;;;;;6.33;100.00;98943.94;104984;1264;73631;-69
2023/01/19 10:45:28;;;;;;;18.60;15.60;;;;;;;6.39;100.00;98941.89;105001;1260;68840;-69
2023/01/19 10:47:58;;;;;;;19.10;15.70;;;;;;;6.44;100.00;98946.94;105208;1261;74100;-70
2023/01/19 10:50:29;;;;;;;20.10;15.20;;;;;;;6.48;100.00;98942.95;105215;1266;61992;-70
2023/01/19 10:53:02;;;;;;;20.20;15.50;;;;;;;6.54;100.00;98933.81;105230;1265;59890;-70
2023/01/19 10:55:30;;;;;;;22.40;17.10;;;;;;;6.55;100.00;98927.75;104819;1265;73901;-68
2023/01/19 10:57:57;;;;;;;22.50;17.60;;;;;;;6.56;100.00;98918.56;105188;1266;68524;-71
2023/01/19 11:00:39;;;;;;;23.40;15.50;;;;;;;6.56;100.00;98914.70;105094;1262;74126;-71
2023/01/19 11:03:24;;;;;;;20.80;16.00;;;;;;;6.60;100.00;98912.11;105172;1263;61090;-70
2023/01/19 11:05:51;;;;;;;24.00;16.90;;;;;;;6.62;100.00;98914.65;105153;1260;63031;-73
2023/01/19 11:08:36;;;;;;;23.60;16.20;;;;;;;6.62;100.00;98912.08;104753;1266;74860;-69
2023/01/19 11:11:04;;;;;;;20.10;15.90;;;;;;;6.64;100.00;98916.34;104823;1261;69059;-68
2023/01/19 11:13:31;;;;;;;24.30;16.10;;;;;;;6.68;100.00;98912.55;105080;1260;75523;-70
2023/01/19 11:16:27;;;;;;;23.50;17.50;;;;;;;6.70;100.00;98913.55;104957;1266;64414;-71
2023/01/19 11:18:56;;;;;;;20.90;15.90;;;;;;;6.74;100.00;98905.49;104894;1265;59873;-69
2023/01/19 11:21:26;;;;;;;22.50;14.70;;;;;;;6.79;100.00;98901.30;105611;1260;73742;-68
2023/01/19 11:23:58;;;;;;;17.50;14.50;;;;;;;6.88;100.00;98899.02;105537;1266;68805;-70
2023/01/19 11:26:46;;;;;;;27.00;17.70;;;;;;;6.91;100.00;98896.13;105017;1264;73132;-69
2023/01/19 11:29:24;;;;;;;24.80;17.70;;;;;;;6.92;100.00;98891.00;105511;1266;61527;-72
2023/01/19 11:31:52;;;;;;;20.30;17.20;;;;;;;6.92;100.00;98891.70;105518;1260;60831;-72
2023/01/19 11:34:33;;;;;;;27.80;19.40;;;;;;;6.93;100.00;98889.42;105523;1266;75448;-73
2023/01/19 11:37:02;;;;;;;24.50;18.00;;;;;;;6.95;100.00;98883.84;105192;1261;69806;-73
2023/01/19 11:39:30;;;;;;;21.70;16.00;;;;;;;6.99;100.00;98880.95;105477;1266;75088;-71
2023/01/19 11:42:01;;;;;;;23.90;15.40;;;;;;;7.06;100.00;98881.26;105436;1265;61475;-74
2023/01/19 11:44:31;;;;;;;21.90;15.20;;;;;;;7.06;100.00;98871.48;105449;1261;59772;-71
2023/01/19 11:47:00;;;;;;;22.40;13.60;;;;;;;7.07;100.00;98868.44;105274;1260;72472;-72
2023/01/19 11:49:43;;;;;;;25.20;15.40;;;;;;;7.11;100.00;98869.92;105020;1266;68021;-72
2023/01/19 11:52:28;;;;;;;21.20;14.90;;;;;;;7.17;100.00;98875.46;105476;1259;74532;-72
2023/01/19 11:55:17;;;;;;;25.20;16.80;;;;;;;7.19;100.00;98877.27;104955;1260;64590;-70
2023/01/19 11:57:46;;;;;;;38.50;16.00;;;;;;;7.21;100.00;98876.11;105538;1263;62723;-73
2023/01/19 12:00:19;;;;;;;25.60;17.10;;;;;;;7.26;100.00;98874.84;105388;1266;73530;-71
2023/01/19 12:02:45;;;;;;;30.00;15.80;;;;;;;7.30;100.00;98875.58;105439;1266;69034;-70
2023/01/19 12:05:14;;;;;;;34.50;20.00;;;;;;;7.32;100.00;98871.92;104922;1260;74222;-70
2023/01/19 12:07:41;;;;;;;30.80;17.50;;;;;;;7.36;100.00;98871.70;105455;1259;63015;-71
2023/01/19 12:10:28;;;;;;;23.00;14.20;;;;;;;7.43;100.00;98872.21;105336;1268;63091;-73
2023/01/19 12:12:55;;;;;;;32.40;17.10;;;;;;;7.47;100.00;98880.55;105540;1260;74694;-72
2023/01/19 12:15:28;;;;;;;27.50;17.60;;;;;;;7.47;100.00;98888.36;105305;1263;68127;-72
2023/01/19 16:21:16;;;;;;;55.70;30.00;;;;;;;8.74;100.00;98955.00;102453;1292;600861;-69
2023/01/19 16:23:43;;;;;;;52.20;29.70;;;;;;;8.73;100.00;98958.08;104618;1272;60895;-71
2023/01/19 16:26:33;;;;;;;54.00;25.70;;;;;;;8.74;100.00;98954.07;104818;1267;61507;-71
2023/01/19 16:29:06;;;;;;;57.30;25.70;;;;;;;8.80;100.00;98945.38;104949;1267;72839;-69
2023/01/19 16:31:33;;;;;;;;;;;;;;;8.88;100.00;98946.41;104674;1267;68601;-71
2023/01/19 16:34:00;;;;;;;36.90;19.90;;;;;;;8.94;100.00;98945.64;104929;1254;655547;-70
2023/01/19 16:36:29;;;;;;;35.60;21.70;;;;;;;8.94;100.00;98948.27;105524;1259;61655;-71
2023/01/19 16:39:00;;;;;;;47.10;20.80;;;;;;;8.93;100.00;98952.88;105847;1254;63085;-70
2023/01/19 16:41:27;;;;;;;48.10;18.00;;;;;;;8.96;100.00;98952.64;105768;1260;72167;-68
2023/01/19 16:43:55;;;;;;;38.90;17.10;;;;;;;9.01;100.00;98951.17;105414;1258;69362;-70
2023/01/19 16:46:23;;;;;;;37.60;18.90;;;;;;;9.04;100.00;98950.45;105550;1256;72970;-70
2023/01/19 16:48:50;;;;;;;37.90;15.80;;;;;;;9.08;100.00;98953.26;105566;1264;61397;-71
2023/01/19 16:51:17;;;;;;;41.00;15.40;;;;;;;9.16;100.00;98952.02;105308;1261;59663;-69
2023/01/19 16:53:47;;;;;;;35.90;17.90;;;;;;;9.31;100.00;98955.81;105382;1256;74851;-68
2023/01/19 16:56:14;;;;;;;33.70;14.60;;;;;;;9.34;100.00;98955.85;105818;1260;69276;-70
2023/01/19 16:58:41;;;;;;;39.60;16.80;;;;;;;9.39;100.00;98957.26;105492;1254;74070;-68
2023/01/19 17:01:13;;;;;;;33.70;15.30;;;;;;;9.42;100.00;98948.96;105514;1254;61669;-70
2023/01/19 17:03:41;;;;;;;34.20;14.20;;;;;;;9.39;100.00;98955.60;105450;1259;59970;-68
2023/01/19 17:06:09;;;;;;;25.70;14.80;;;;;;;9.36;100.00;98955.73;105301;1254;74181;-70
2023/01/19 17:08:37;;;;;;;26.90;13.10;;;;;;;9.32;100.00;98950.61;105605;1258;68394;-67
2023/01/19 17:11:19;;;;;;;40.40;17.30;;;;;;;9.36;100.00;98957.24;105390;1258;71425;-69
2023/01/19 17:13:47;;;;;;;33.40;14.70;;;;;;;9.49;100.00;98950.23;105468;1254;63635;-68
2023/01/19 17:16:14;;;;;;;40.00;14.80;;;;;;;9.59;100.00;98953.13;105474;1260;59686;-68
2023/01/19 17:18:41;;;;;;;36.10;13.30;;;;;;;9.61;100.00;98946.85;105502;1255;74907;-69
2023/01/19 17:21:08;;;;;;;31.70;14.00;;;;;;;9.65;100.00;98945.41;105473;1254;67624;-71
2023/01/19 17:23:36;;;;;;;20.90;13.30;;;;;;;9.66;100.00;98946.50;105451;1259;71808;-68
2023/01/19 17:26:03;;;;;;;38.80;17.20;;;;;;;9.61;100.00;98952.98;105572;1255;62084;-68
2023/01/19 17:28:30;;;;;;;38.10;16.30;;;;;;;9.58;100.00;98949.84;105416;1254;62804;-69
2023/01/19 17:31:20;;;;;;;23.50;13.50;;;;;;;9.62;100.00;98951.43;105481;1259;73413;-69
2023/01/19 17:33:48;;;;;;;34.80;14.90;;;;;;;9.71;100.00;98952.05;109232;1254;70141;-72
2023/01/19 17:36:21;;;;;;;32.70;15.00;;;;;;;9.78;100.00;98952.52;109201;1254;72811;-68
2023/01/19 17:38:48;;;;;;;35.00;15.70;;;;;;;9.82;100.00;98950.60;109054;1262;62411;-68
2023/01/19 17:41:23;;;;;;;28.70;14.30;;;;;;;9.84;100.00;98957.63;109242;1254;59638;-68
2023/01/19 17:43:50;;;;;;;26.00;13.20;;;;;;;9.82;100.00;98950.64;109213;1254;73497;-69
2023/01/19 17:46:18;;;;;;;32.90;14.10;;;;;;;9.81;100.00;98950.10;109219;1254;70132;-70
2023/01/19 17:48:55;;;;;;;29.70;12.20;;;;;;;9.80;100.00;98948.80;109292;1254;72709;-68
2023/01/19 17:51:22;;;;;;;29.30;12.30;;;;;;;9.78;100.00;98947.35;109198;1254;63443;-69
2023/01/19 17:53:49;;;;;;;20.80;11.00;;;;;;;9.77;100.00;98949.29;109165;1254;59410;-67
2023/01/19 17:56:20;;;;;;;33.50;13.30;;;;;;;9.82;100.00;98950.48;109242;1254;74224;-68
2023/01/19 17:58:47;;;;;;;23.50;10.90;;;;;;;9.81;100.00;98948.11;109228;1254;70229;-70
2023/01/19 18:01:16;;;;;;;34.80;13.90;;;;;;;9.79;100.00;98948.75;109203;1254;73292;-70
2023/01/19 18:03:43;;;;;;;25.90;10.90;;;;;;;9.76;100.00;98952.02;109197;1254;60455;-69
2023/01/19 18:06:10;;;;;;;23.10;11.80;;;;;;;9.76;100.00;98951.05;109222;1254;59490;-70
2023/01/19 18:08:38;;;;;;;30.30;12.50;;;;;;;9.75;100.00;98950.89;109219;1253;72843;-68
2023/01/19 18:11:05;;;;;;;21.40;10.70;;;;;;;9.75;100.00;98951.15;109038;1257;66646;-69
2023/01/19 18:13:32;;;;;;;26.50;10.70;;;;;;;9.75;100.00;98955.66;109180;1257;73112;-70
2023/01/19 18:16:23;;;;;;;23.00;8.80;;;;;;;9.77;100.00;98952.51;109074;1256;61259;-67
2023/01/19 18:18:52;;;;;;;25.00;9.40;;;;;;;9.77;100.00;98949.98;109163;1256;60321;-70
2023/01/19 18:21:20;;;;;;;26.60;11.20;;;;;;;9.77;100.00;98949.61;109121;1256;72404;-69
2023/01/19 18:23:48;;;;;;;30.60;8.50;;;;;;;9.74;100.00;98950.60;109106;1257;70262;-68
2023/01/19 18:26:19;;;;;;;23.80;10.50;;;;;;;9.70;100.00;98951.73;109082;1257;75247;-69
2023/01/19 18:28:46;;;;;;;24.60;9.40;;;;;;;9.67;100.00;98957.46;109164;1257;59656;-67
2023/01/19 18:31:15;;;;;;;27.90;8.90;;;;;;;9.66;100.00;98954.39;109171;1256;60539;-68
2023/01/19 18:33:42;;;;;;;21.80;9.40;;;;;;;9.63;100.00;98944.94;109202;1257;71899;-70
2023/01/19 18:36:09;;;;;;;24.40;8.90;;;;;;;9.64;100.00;98947.23;109229;1256;68035;-72
2023/01/19 18:38:37;;;;;;;23.00;7.90;;;;;;;9.65;100.00;98943.27;109087;1257;73024;-72
2023/01/19 18:41:08;;;;;;;25.90;9.20;;;;;;;9.61;100.00;98940.79;109081;1257;62610;-71
2023/01/19 18:43:35;;;;;;;31.80;9.00;;;;;;;9.59;100.00;98947.53;109101;1257;61386;-72
2023/01/19 18:46:02;;;;;;;27.00;8.90;;;;;;;9.57;100.00;98946.95;109105;1257;72358;-70
2023/01/19 18:48:29;;;;;;;23.80;8.60;;;;;;;9.52;100.00;98944.77;109021;1257;69454;-70
2023/01/19 18:50:56;;;;;;;24.00;9.10;;;;;;;9.49;100.00;98941.06;109174;1257;72782;-71
2023/01/19 18:53:23;;;;;;;30.90;9.50;;;;;;;9.50;100.00;98944.02;109143;1257;60914;-73
2023/01/19 18:55:57;;;;;;;27.20;8.90;;;;;;;9.53;100.00;98949.34;109108;1256;58739;-70
2023/01/19 18:58:27;;;;;;;29.40;10.40;;;;;;;9.48;100.00;98950.98;109074;1257;73251;-71
2023/01/19 19:00:55;;;;;;;19.80;7.50;;;;;;;9.41;100.00;98954.54;109078;1257;69882;-75
2023/01/19 19:03:22;;;;;;;33.50;8.70;;;;;;;9.37;100.00;98955.70;109099;1257;74791;-72
2023/01/19 19:05:49;;;;;;;18.30;8.90;;;;;;;9.33;100.00;98957.81;109080;1257;61157;-71
2023/01/19 19:08:16;;;;;;;30.60;8.50;;;;;;;9.30;100.00;98955.44;109188;1262;61079;-70
2023/01/19 19:10:43;;;;;;;21.20;9.70;;;;;;;9.29;100.00;98952.48;109165;1257;73075;-72
2023/01/19 19:13:11;;;;;;;17.00;7.30;;;;;;;9.28;100.00;98950.54;109082;1257;68543;-72
2023/01/19 19:15:38;;;;;;;12.90;8.20;;;;;;;9.24;100.00;98959.80;109040;1262;74748;-71
2023/01/19 19:18:07;;;;;;;23.40;9.00;;;;;;;9.22;100.00;98964.35;109070;1258;60688;-71
2023/01/19 19:20:37;;;;;;;26.90;9.10;;;;;;;9.18;100.00;98965.71;109102;1256;59581;-68
2023/01/19 19:23:04;;;;;;;20.30;8.60;;;;;;;9.20;100.00;98969.45;109023;1256;73905;-71
2023/01/19 19:25:32;;;;;;;21.60;8.40;;;;;;;9.19;100.00;98966.42;109102;1256;67948;-68
2023/01/19 19:27:59;;;;;;;30.20;8.10;;;;;;;9.17;100.00;98965.45;109032;1257;71830;-69
2023/01/19 19:30:26;;;;;;;24.70;8.70;;;;;;;9.16;100.00;98963.92;109050;1258;60981;-68
2023/01/19 19:32:55;;;;;;;26.00;10.40;;;;;;;9.18;100.00;98964.33;109044;1257;58605;-70
2023/01/19 19:35:22;;;;;;;25.70;8.30;;;;;;;9.19;100.00;98964.88;108993;1264;74287;-70
2023/01/19 19:37:50;;;;;;;33.10;9.90;;;;;;;9.17;100.00;98967.10;109101;1256;67479;-70